West York, Pennsylvania
Current Conditions -  °F | °C
As of 12:53 PM on Sunday 21 Dec 2014 (Local Time) from KTHV Reporting Station
Broken Clouds Broken Clouds  
Wind Chill: 30°   Ceiling: 2900
Heat Index: 37°   Visibility: 10mi
Dew Point: 22°   Wind: 9mph
Humidity: 54%   Direction: 350°N
Pressure: 30.31"   Gusts: NA
Location:  39.9718°N, 76.7746°W
Report Text: KTHV 211753Z AUTO 35008KT 10SM BKN029 03/M06 A3031 RMK AO2 SLP271 T00281056 10033 21056 56010
Loading
Personal Weather Stations






























Interactive Weather Map New forecast layout! Learn more

10-Day Weather Forecast

Advertisements
Track Severe Weather on mobile